This is the latest recevied weather packets stored in our database for station/object ED4YAF-13. If no packets are shown the sender has not sent any weather packets the latest 10 day(s).
| Time | Temp. | Humidity | Pressure | Rain* | Wind** | Luminosity | Snow |
|---|---|---|---|---|---|---|---|
| 1788090160 | 22.78° C | 24% | 1012.8 hPa | - | - | - | - |
| 1788089260 | 23.33° C | 25% | 1012.5 hPa | - | - | - | - |
| 1788088353 | 23.33° C | 25% | 1012.7 hPa | - | - | - | - |
| 1788087440 | 22.22° C | 26% | 1013.2 hPa | - | - | - | - |
| 1788086531 | 22.78° C | 26% | 1013.2 hPa | - | - | - | - |
| 1788085631 | 22.22° C | 27% | 1013.6 hPa | - | - | - | - |
| 1788084731 | 21.11° C | 28% | 1014.5 hPa | - | - | - | - |
| 1788083838 | 21.11° C | 28% | 1014.4 hPa | - | - | - | - |
| 1788082922 | 20.56° C | 29% | 1014.9 hPa | - | - | - | - |
| 1788082022 | 19.44° C | 30% | 1015.3 hPa | - | - | - | - |
| 1788081125 | 19.44° C | 31% | 1015.4 hPa | - | - | - | - |
| 1788080218 | 18.89° C | 32% | 1015.7 hPa | - | - | - | - |
| 1788079308 | 18.33° C | 32% | 1016 hPa | - | - | - | - |
| 1788078416 | 17.78° C | 33% | 1016.3 hPa | - | - | - | - |
| 1788077508 | 17.22° C | 34% | 1016.8 hPa | - | - | - | - |
| 1788077322 | 16.67° C | 35% | 1017.3 hPa | - | - | - | - |
| 1788076605 | 16.67° C | 35% | 1017.3 hPa | - | - | - | - |
| 1788075698 | 16.11° C | 37% | 1017.6 hPa | - | - | - | - |
| 1788074798 | 15.56° C | 37% | 1017.8 hPa | - | - | - | - |
| 1788073898 | 15.56° C | 37% | 1018 hPa | - | - | - | - |
| 1788073005 | 15° C | 37% | 1018.1 hPa | - | - | - | - |
| 1788071918 | 14.44° C | 37% | 1018.4 hPa | - | - | - | - |
| 1788071018 | 14.44° C | 38% | 1018.6 hPa | - | - | - | - |
| 1788070118 | 13.89° C | 39% | 1018.9 hPa | - | - | - | - |
| 1788069218 | 13.33° C | 39% | 1019.1 hPa | - | - | - | - |
* Rain since midnight (hover to see other rain measurements)
** Current wind speed in m/s (hover to see current wind gust speed)